sensor_id;sensor_type;location;lat;lon;timestamp;P1;durP1;ratioP1;P2;durP2;ratioP2
74124;SDS011;62475;52.192;5.396;2023-08-06T00:01:11;16.90;;;9.90;;
74124;SDS011;62475;52.192;5.396;2023-08-06T00:03:36;20.08;;;11.45;;
74124;SDS011;62475;52.192;5.396;2023-08-06T00:06:02;19.93;;;11.10;;
74124;SDS011;62475;52.192;5.396;2023-08-06T00:08:27;20.20;;;10.90;;
74124;SDS011;62475;52.192;5.396;2023-08-06T00:10:52;18.93;;;11.37;;
74124;SDS011;62475;52.192;5.396;2023-08-06T00:13:17;15.97;;;9.63;;
74124;SDS011;62475;52.192;5.396;2023-08-06T00:15:43;18.85;;;9.90;;
74124;SDS011;62475;52.192;5.396;2023-08-06T00:18:08;20.05;;;10.15;;
74124;SDS011;62475;52.192;5.396;2023-08-06T00:20:33;16.97;;;10.13;;
74124;SDS011;62475;52.192;5.396;2023-08-06T00:22:58;13.43;;;9.23;;
74124;SDS011;62475;52.192;5.396;2023-08-06T00:25:24;18.35;;;9.38;;
74124;SDS011;62475;52.192;5.396;2023-08-06T00:27:50;15.93;;;8.83;;
74124;SDS011;62475;52.192;5.396;2023-08-06T00:30:15;15.57;;;9.07;;
74124;SDS011;62475;52.192;5.396;2023-08-06T00:32:40;16.80;;;9.10;;
74124;SDS011;62475;52.192;5.396;2023-08-06T00:35:06;18.88;;;10.13;;
74124;SDS011;62475;52.192;5.396;2023-08-06T00:37:31;18.40;;;9.52;;
74124;SDS011;62475;52.192;5.396;2023-08-06T00:39:56;16.10;;;9.50;;
74124;SDS011;62475;52.192;5.396;2023-08-06T00:42:22;14.03;;;9.00;;
74124;SDS011;62475;52.192;5.396;2023-08-06T00:44:47;16.00;;;10.40;;
74124;SDS011;62475;52.192;5.396;2023-08-06T00:47:12;16.77;;;9.48;;
74124;SDS011;62475;52.192;5.396;2023-08-06T00:49:38;13.70;;;8.48;;
74124;SDS011;62475;52.192;5.396;2023-08-06T00:52:04;14.30;;;8.80;;
74124;SDS011;62475;52.192;5.396;2023-08-06T00:54:30;14.68;;;8.77;;
74124;SDS011;62475;52.192;5.396;2023-08-06T00:56:55;14.55;;;8.65;;
74124;SDS011;62475;52.192;5.396;2023-08-06T00:59:22;15.85;;;9.07;;
74124;SDS011;62475;52.192;5.396;2023-08-06T01:01:47;14.88;;;8.60;;
74124;SDS011;62475;52.192;5.396;2023-08-06T01:04:15;16.50;;;9.38;;
74124;SDS011;62475;52.192;5.396;2023-08-06T01:06:44;17.42;;;9.85;;
74124;SDS011;62475;52.192;5.396;2023-08-06T01:09:24;16.23;;;9.52;;
74124;SDS011;62475;52.192;5.396;2023-08-06T01:11:56;20.67;;;9.65;;
74124;SDS011;62475;52.192;5.396;2023-08-06T01:17:06;17.92;;;10.30;;
74124;SDS011;62475;52.192;5.396;2023-08-06T01:19:32;21.23;;;10.63;;
74124;SDS011;62475;52.192;5.396;2023-08-06T01:21:57;18.43;;;10.87;;
74124;SDS011;62475;52.192;5.396;2023-08-06T01:24:23;20.03;;;11.07;;
74124;SDS011;62475;52.192;5.396;2023-08-06T01:29:28;19.33;;;10.90;;
74124;SDS011;62475;52.192;5.396;2023-08-06T01:31:55;19.80;;;11.45;;
74124;SDS011;62475;52.192;5.396;2023-08-06T01:34:21;21.55;;;12.45;;
74124;SDS011;62475;52.192;5.396;2023-08-06T01:36:47;23.45;;;12.70;;
74124;SDS011;62475;52.192;5.396;2023-08-06T01:39:12;22.10;;;12.35;;
74124;SDS011;62475;52.192;5.396;2023-08-06T01:41:38;21.00;;;12.30;;
74124;SDS011;62475;52.192;5.396;2023-08-06T01:44:03;26.33;;;13.53;;
74124;SDS011;62475;52.192;5.396;2023-08-06T01:46:28;21.40;;;12.52;;
74124;SDS011;62475;52.192;5.396;2023-08-06T01:48:54;25.77;;;13.33;;
74124;SDS011;62475;52.192;5.396;2023-08-06T01:51:19;22.17;;;11.83;;
74124;SDS011;62475;52.192;5.396;2023-08-06T01:53:44;23.30;;;13.10;;
74124;SDS011;62475;52.192;5.396;2023-08-06T01:56:09;24.90;;;13.90;;
74124;SDS011;62475;52.192;5.396;2023-08-06T01:58:34;26.67;;;14.50;;
74124;SDS011;62475;52.192;5.396;2023-08-06T02:01:00;27.98;;;14.70;;
74124;SDS011;62475;52.192;5.396;2023-08-06T02:03:26;28.10;;;15.07;;
74124;SDS011;62475;52.192;5.396;2023-08-06T02:05:51;26.67;;;14.93;;
74124;SDS011;62475;52.192;5.396;2023-08-06T02:08:16;27.80;;;14.27;;
74124;SDS011;62475;52.192;5.396;2023-08-06T02:10:41;27.73;;;14.70;;
74124;SDS011;62475;52.192;5.396;2023-08-06T02:13:06;26.17;;;15.02;;
74124;SDS011;62475;52.192;5.396;2023-08-06T02:15:32;26.57;;;15.00;;
74124;SDS011;62475;52.192;5.396;2023-08-06T02:17:57;26.43;;;14.50;;
74124;SDS011;62475;52.192;5.396;2023-08-06T02:20:22;27.17;;;14.87;;
74124;SDS011;62475;52.192;5.396;2023-08-06T02:22:47;27.10;;;15.07;;
74124;SDS011;62475;52.192;5.396;2023-08-06T02:25:12;27.43;;;14.77;;
74124;SDS011;62475;52.192;5.396;2023-08-06T02:27:38;27.97;;;14.13;;
74124;SDS011;62475;52.192;5.396;2023-08-06T02:30:03;27.23;;;13.93;;
74124;SDS011;62475;52.192;5.396;2023-08-06T02:32:29;27.33;;;14.43;;
74124;SDS011;62475;52.192;5.396;2023-08-06T02:34:56;30.48;;;15.68;;
74124;SDS011;62475;52.192;5.396;2023-08-06T02:37:21;29.00;;;15.50;;
74124;SDS011;62475;52.192;5.396;2023-08-06T02:39:48;25.30;;;14.75;;
74124;SDS011;62475;52.192;5.396;2023-08-06T02:42:13;30.00;;;14.93;;
74124;SDS011;62475;52.192;5.396;2023-08-06T02:44:38;30.13;;;16.20;;
74124;SDS011;62475;52.192;5.396;2023-08-06T02:47:03;30.00;;;14.70;;
74124;SDS011;62475;52.192;5.396;2023-08-06T02:49:28;30.30;;;14.98;;
74124;SDS011;62475;52.192;5.396;2023-08-06T02:51:54;29.00;;;16.33;;
74124;SDS011;62475;52.192;5.396;2023-08-06T02:54:19;25.93;;;15.03;;
74124;SDS011;62475;52.192;5.396;2023-08-06T02:56:45;30.20;;;15.45;;
74124;SDS011;62475;52.192;5.396;2023-08-06T02:59:10;28.50;;;14.00;;
74124;SDS011;62475;52.192;5.396;2023-08-06T03:01:35;31.27;;;16.05;;
74124;SDS011;62475;52.192;5.396;2023-08-06T03:04:01;29.05;;;14.45;;
74124;SDS011;62475;52.192;5.396;2023-08-06T03:06:26;26.17;;;14.60;;
74124;SDS011;62475;52.192;5.396;2023-08-06T03:08:51;30.17;;;14.40;;
74124;SDS011;62475;52.192;5.396;2023-08-06T03:11:17;23.57;;;12.67;;
74124;SDS011;62475;52.192;5.396;2023-08-06T03:13:42;23.80;;;12.53;;
74124;SDS011;62475;52.192;5.396;2023-08-06T03:16:07;20.53;;;10.67;;
74124;SDS011;62475;52.192;5.396;2023-08-06T03:18:32;24.67;;;11.03;;
74124;SDS011;62475;52.192;5.396;2023-08-06T03:20:57;18.70;;;10.73;;
74124;SDS011;62475;52.192;5.396;2023-08-06T03:23:23;15.30;;;8.83;;
74124;SDS011;62475;52.192;5.396;2023-08-06T03:25:49;13.35;;;7.90;;
74124;SDS011;62475;52.192;5.396;2023-08-06T03:28:14;8.57;;;4.53;;
74124;SDS011;62475;52.192;5.396;2023-08-06T03:30:40;8.13;;;4.50;;
74124;SDS011;62475;52.192;5.396;2023-08-06T03:33:05;5.70;;;3.23;;
74124;SDS011;62475;52.192;5.396;2023-08-06T03:35:30;5.68;;;3.20;;
74124;SDS011;62475;52.192;5.396;2023-08-06T03:37:55;6.83;;;3.50;;
74124;SDS011;62475;52.192;5.396;2023-08-06T03:40:20;6.07;;;4.20;;
74124;SDS011;62475;52.192;5.396;2023-08-06T03:42:46;8.37;;;4.80;;
74124;SDS011;62475;52.192;5.396;2023-08-06T03:45:11;9.13;;;4.77;;
74124;SDS011;62475;52.192;5.396;2023-08-06T03:47:36;11.63;;;5.70;;
74124;SDS011;62475;52.192;5.396;2023-08-06T03:50:02;14.52;;;7.00;;
74124;SDS011;62475;52.192;5.396;2023-08-06T03:52:27;17.35;;;8.82;;
74124;SDS011;62475;52.192;5.396;2023-08-06T03:54:52;18.10;;;8.73;;
74124;SDS011;62475;52.192;5.396;2023-08-06T03:57:19;20.57;;;10.53;;
74124;SDS011;62475;52.192;5.396;2023-08-06T03:59:44;22.08;;;11.32;;
74124;SDS011;62475;52.192;5.396;2023-08-06T04:02:09;24.70;;;12.73;;
74124;SDS011;62475;52.192;5.396;2023-08-06T04:04:34;34.23;;;15.03;;
74124;SDS011;62475;52.192;5.396;2023-08-06T04:06:59;25.73;;;13.73;;
74124;SDS011;62475;52.192;5.396;2023-08-06T04:09:28;34.43;;;16.07;;
74124;SDS011;62475;52.192;5.396;2023-08-06T04:11:53;33.70;;;14.75;;
74124;SDS011;62475;52.192;5.396;2023-08-06T04:14:18;33.43;;;15.07;;
74124;SDS011;62475;52.192;5.396;2023-08-06T04:16:43;28.70;;;14.77;;
74124;SDS011;62475;52.192;5.396;2023-08-06T04:19:09;27.07;;;13.43;;
74124;SDS011;62475;52.192;5.396;2023-08-06T04:21:34;29.42;;;13.82;;
74124;SDS011;62475;52.192;5.396;2023-08-06T04:24:00;30.90;;;15.13;;
74124;SDS011;62475;52.192;5.396;2023-08-06T04:26:25;35.73;;;16.20;;
74124;SDS011;62475;52.192;5.396;2023-08-06T04:28:50;29.00;;;15.60;;
74124;SDS011;62475;52.192;5.396;2023-08-06T04:31:15;36.33;;;15.87;;
74124;SDS011;62475;52.192;5.396;2023-08-06T04:33:41;32.95;;;14.63;;
74124;SDS011;62475;52.192;5.396;2023-08-06T04:36:08;32.55;;;15.77;;
74124;SDS011;62475;52.192;5.396;2023-08-06T04:38:33;36.47;;;17.73;;
74124;SDS011;62475;52.192;5.396;2023-08-06T04:40:58;31.77;;;16.30;;
74124;SDS011;62475;52.192;5.396;2023-08-06T04:43:23;32.40;;;16.10;;
74124;SDS011;62475;52.192;5.396;2023-08-06T04:45:50;40.08;;;17.35;;
74124;SDS011;62475;52.192;5.396;2023-08-06T04:48:16;38.13;;;16.55;;
74124;SDS011;62475;52.192;5.396;2023-08-06T04:50:45;39.63;;;17.40;;
74124;SDS011;62475;52.192;5.396;2023-08-06T04:53:10;42.42;;;16.30;;
74124;SDS011;62475;52.192;5.396;2023-08-06T04:55:36;38.05;;;17.02;;
74124;SDS011;62475;52.192;5.396;2023-08-06T04:58:01;32.03;;;16.07;;
74124;SDS011;62475;52.192;5.396;2023-08-06T05:00:26;35.70;;;17.33;;
74124;SDS011;62475;52.192;5.396;2023-08-06T05:02:51;41.17;;;17.60;;
74124;SDS011;62475;52.192;5.396;2023-08-06T05:05:16;40.90;;;17.87;;
74124;SDS011;62475;52.192;5.396;2023-08-06T05:07:42;37.43;;;17.30;;
74124;SDS011;62475;52.192;5.396;2023-08-06T05:10:07;34.37;;;17.57;;
74124;SDS011;62475;52.192;5.396;2023-08-06T05:12:32;36.67;;;17.77;;
74124;SDS011;62475;52.192;5.396;2023-08-06T05:14:57;36.60;;;16.57;;
74124;SDS011;62475;52.192;5.396;2023-08-06T05:17:23;35.87;;;17.23;;
74124;SDS011;62475;52.192;5.396;2023-08-06T05:19:49;40.38;;;17.88;;
74124;SDS011;62475;52.192;5.396;2023-08-06T05:22:14;42.83;;;18.20;;
74124;SDS011;62475;52.192;5.396;2023-08-06T05:24:39;36.27;;;17.10;;
74124;SDS011;62475;52.192;5.396;2023-08-06T05:27:04;37.63;;;17.63;;
74124;SDS011;62475;52.192;5.396;2023-08-06T05:29:31;38.70;;;16.90;;
74124;SDS011;62475;52.192;5.396;2023-08-06T05:31:56;35.47;;;16.75;;
74124;SDS011;62475;52.192;5.396;2023-08-06T05:34:24;34.13;;;16.77;;
74124;SDS011;62475;52.192;5.396;2023-08-06T05:36:50;42.92;;;18.45;;
74124;SDS011;62475;52.192;5.396;2023-08-06T05:39:17;37.63;;;16.85;;
74124;SDS011;62475;52.192;5.396;2023-08-06T05:41:42;38.83;;;17.63;;
74124;SDS011;62475;52.192;5.396;2023-08-06T05:44:08;42.50;;;18.87;;
74124;SDS011;62475;52.192;5.396;2023-08-06T05:46:33;43.60;;;19.37;;
74124;SDS011;62475;52.192;5.396;2023-08-06T05:48:58;33.77;;;17.80;;
74124;SDS011;62475;52.192;5.396;2023-08-06T05:51:23;40.90;;;19.27;;
74124;SDS011;62475;52.192;5.396;2023-08-06T05:53:48;40.30;;;18.87;;
74124;SDS011;62475;52.192;5.396;2023-08-06T05:56:15;40.72;;;17.95;;
74124;SDS011;62475;52.192;5.396;2023-08-06T05:58:40;36.95;;;17.98;;
74124;SDS011;62475;52.192;5.396;2023-08-06T06:01:06;36.23;;;17.23;;
74124;SDS011;62475;52.192;5.396;2023-08-06T06:03:31;34.50;;;16.57;;
74124;SDS011;62475;52.192;5.396;2023-08-06T06:05:56;39.93;;;16.80;;
74124;SDS011;62475;52.192;5.396;2023-08-06T06:08:21;32.40;;;16.67;;
74124;SDS011;62475;52.192;5.396;2023-08-06T06:10:46;35.80;;;16.57;;
74124;SDS011;62475;52.192;5.396;2023-08-06T06:13:12;35.03;;;17.17;;
74124;SDS011;62475;52.192;5.396;2023-08-06T06:15:37;31.97;;;16.70;;
74124;SDS011;62475;52.192;5.396;2023-08-06T06:18:03;27.85;;;16.05;;
74124;SDS011;62475;52.192;5.396;2023-08-06T06:20:28;30.53;;;16.57;;
74124;SDS011;62475;52.192;5.396;2023-08-06T06:22:53;26.47;;;15.37;;
74124;SDS011;62475;52.192;5.396;2023-08-06T06:25:18;34.73;;;16.00;;
74124;SDS011;62475;52.192;5.396;2023-08-06T06:27:44;37.45;;;17.52;;
74124;SDS011;62475;52.192;5.396;2023-08-06T06:30:10;30.27;;;15.80;;
74124;SDS011;62475;52.192;5.396;2023-08-06T06:32:37;23.63;;;13.73;;
74124;SDS011;62475;52.192;5.396;2023-08-06T06:35:02;34.22;;;16.30;;
74124;SDS011;62475;52.192;5.396;2023-08-06T06:37:28;35.90;;;17.13;;
74124;SDS011;62475;52.192;5.396;2023-08-06T06:39:53;29.30;;;15.33;;
74124;SDS011;62475;52.192;5.396;2023-08-06T06:42:18;32.77;;;14.37;;
74124;SDS011;62475;52.192;5.396;2023-08-06T06:44:43;28.50;;;15.23;;
74124;SDS011;62475;52.192;5.396;2023-08-06T06:47:08;31.17;;;15.50;;
74124;SDS011;62475;52.192;5.396;2023-08-06T06:49:34;30.67;;;16.33;;
74124;SDS011;62475;52.192;5.396;2023-08-06T06:51:59;29.17;;;16.23;;
74124;SDS011;62475;52.192;5.396;2023-08-06T06:54:24;30.45;;;16.88;;
74124;SDS011;62475;52.192;5.396;2023-08-06T06:56:52;35.63;;;16.83;;
74124;SDS011;62475;52.192;5.396;2023-08-06T06:59:17;30.83;;;16.20;;
74124;SDS011;62475;52.192;5.396;2023-08-06T07:01:43;31.53;;;16.43;;
74124;SDS011;62475;52.192;5.396;2023-08-06T07:04:08;29.57;;;16.60;;
74124;SDS011;62475;52.192;5.396;2023-08-06T07:06:33;30.50;;;15.67;;
74124;SDS011;62475;52.192;5.396;2023-08-06T07:08:58;33.47;;;16.50;;
74124;SDS011;62475;52.192;5.396;2023-08-06T07:11:23;33.10;;;15.70;;
74124;SDS011;62475;52.192;5.396;2023-08-06T07:13:49;38.10;;;17.40;;
74124;SDS011;62475;52.192;5.396;2023-08-06T07:16:15;33.90;;;15.88;;
74124;SDS011;62475;52.192;5.396;2023-08-06T07:18:40;34.00;;;17.50;;
74124;SDS011;62475;52.192;5.396;2023-08-06T07:21:05;33.90;;;17.60;;
74124;SDS011;62475;52.192;5.396;2023-08-06T07:23:32;35.70;;;16.52;;
74124;SDS011;62475;52.192;5.396;2023-08-06T07:25:57;35.78;;;17.65;;
74124;SDS011;62475;52.192;5.396;2023-08-06T07:28:22;33.97;;;17.87;;
74124;SDS011;62475;52.192;5.396;2023-08-06T07:30:47;27.70;;;15.55;;
74124;SDS011;62475;52.192;5.396;2023-08-06T07:33:13;31.77;;;16.33;;
74124;SDS011;62475;52.192;5.396;2023-08-06T07:35:38;34.70;;;17.13;;
74124;SDS011;62475;52.192;5.396;2023-08-06T07:38:03;34.73;;;16.00;;
74124;SDS011;62475;52.192;5.396;2023-08-06T07:40:28;30.15;;;15.18;;
74124;SDS011;62475;52.192;5.396;2023-08-06T07:42:54;30.75;;;16.05;;
74124;SDS011;62475;52.192;5.396;2023-08-06T07:45:19;26.70;;;14.10;;
74124;SDS011;62475;52.192;5.396;2023-08-06T07:47:44;24.23;;;12.97;;
74124;SDS011;62475;52.192;5.396;2023-08-06T07:50:10;26.97;;;13.97;;
74124;SDS011;62475;52.192;5.396;2023-08-06T07:52:35;26.57;;;14.30;;
74124;SDS011;62475;52.192;5.396;2023-08-06T07:55:00;25.08;;;13.35;;
74124;SDS011;62475;52.192;5.396;2023-08-06T07:57:27;25.30;;;13.80;;
74124;SDS011;62475;52.192;5.396;2023-08-06T07:59:52;27.60;;;13.67;;
74124;SDS011;62475;52.192;5.396;2023-08-06T08:02:18;24.17;;;12.90;;
74124;SDS011;62475;52.192;5.396;2023-08-06T08:04:43;23.63;;;11.97;;
74124;SDS011;62475;52.192;5.396;2023-08-06T08:07:09;23.63;;;12.47;;
74124;SDS011;62475;52.192;5.396;2023-08-06T08:09:35;22.50;;;12.52;;
74124;SDS011;62475;52.192;5.396;2023-08-06T08:12:00;20.77;;;12.30;;
74124;SDS011;62475;52.192;5.396;2023-08-06T08:14:27;24.08;;;12.75;;
74124;SDS011;62475;52.192;5.396;2023-08-06T08:16:53;23.85;;;12.85;;
74124;SDS011;62475;52.192;5.396;2023-08-06T08:19:20;26.75;;;13.05;;
74124;SDS011;62475;52.192;5.396;2023-08-06T08:21:46;25.33;;;13.57;;
74124;SDS011;62475;52.192;5.396;2023-08-06T08:24:11;19.30;;;12.20;;
74124;SDS011;62475;52.192;5.396;2023-08-06T08:26:36;24.93;;;13.57;;
74124;SDS011;62475;52.192;5.396;2023-08-06T08:29:02;22.43;;;11.87;;
74124;SDS011;62475;52.192;5.396;2023-08-06T08:31:27;24.40;;;12.60;;
74124;SDS011;62475;52.192;5.396;2023-08-06T08:33:53;11.82;;;6.20;;
74124;SDS011;62475;52.192;5.396;2023-08-06T08:36:18;5.80;;;3.30;;
74124;SDS011;62475;52.192;5.396;2023-08-06T08:38:44;7.38;;;3.33;;
74124;SDS011;62475;52.192;5.396;2023-08-06T08:41:09;7.40;;;3.10;;
74124;SDS011;62475;52.192;5.396;2023-08-06T08:43:35;6.88;;;2.58;;
74124;SDS011;62475;52.192;5.396;2023-08-06T08:46:03;11.48;;;4.00;;
74124;SDS011;62475;52.192;5.396;2023-08-06T08:48:29;6.97;;;3.80;;
74124;SDS011;62475;52.192;5.396;2023-08-06T08:50:54;8.20;;;4.53;;
74124;SDS011;62475;52.192;5.396;2023-08-06T08:53:20;8.00;;;4.30;;
74124;SDS011;62475;52.192;5.396;2023-08-06T08:55:49;8.00;;;4.57;;
74124;SDS011;62475;52.192;5.396;2023-08-06T08:58:14;6.97;;;4.40;;
74124;SDS011;62475;52.192;5.396;2023-08-06T09:00:41;6.13;;;3.65;;
74124;SDS011;62475;52.192;5.396;2023-08-06T09:03:06;7.30;;;3.70;;
74124;SDS011;62475;52.192;5.396;2023-08-06T09:05:32;7.20;;;3.95;;
74124;SDS011;62475;52.192;5.396;2023-08-06T09:08:04;7.38;;;3.80;;
74124;SDS011;62475;52.192;5.396;2023-08-06T09:10:30;6.22;;;3.90;;
74124;SDS011;62475;52.192;5.396;2023-08-06T09:12:56;7.65;;;4.40;;
74124;SDS011;62475;52.192;5.396;2023-08-06T09:15:25;6.50;;;4.47;;
74124;SDS011;62475;52.192;5.396;2023-08-06T09:17:51;8.65;;;4.88;;
74124;SDS011;62475;52.192;5.396;2023-08-06T09:20:17;7.10;;;4.50;;
74124;SDS011;62475;52.192;5.396;2023-08-06T09:22:42;8.10;;;4.45;;
74124;SDS011;62475;52.192;5.396;2023-08-06T09:25:09;8.48;;;4.88;;
74124;SDS011;62475;52.192;5.396;2023-08-06T09:27:38;9.95;;;5.78;;
74124;SDS011;62475;52.192;5.396;2023-08-06T09:30:03;8.02;;;5.03;;
74124;SDS011;62475;52.192;5.396;2023-08-06T09:32:48;8.10;;;4.68;;
74124;SDS011;62475;52.192;5.396;2023-08-06T09:35:17;9.50;;;5.28;;
74124;SDS011;62475;52.192;5.396;2023-08-06T09:37:42;8.02;;;5.72;;
74124;SDS011;62475;52.192;5.396;2023-08-06T09:43:05;11.07;;;5.97;;
74124;SDS011;62475;52.192;5.396;2023-08-06T09:45:31;10.63;;;5.70;;
74124;SDS011;62475;52.192;5.396;2023-08-06T09:47:57;10.60;;;6.22;;
74124;SDS011;62475;52.192;5.396;2023-08-06T09:50:22;9.27;;;6.17;;
74124;SDS011;62475;52.192;5.396;2023-08-06T09:52:48;10.32;;;6.70;;
74124;SDS011;62475;52.192;5.396;2023-08-06T09:55:14;11.80;;;6.53;;
74124;SDS011;62475;52.192;5.396;2023-08-06T09:57:42;12.05;;;6.93;;
74124;SDS011;62475;52.192;5.396;2023-08-06T10:00:08;13.60;;;7.20;;
74124;SDS011;62475;52.192;5.396;2023-08-06T10:02:35;13.20;;;7.30;;
74124;SDS011;62475;52.192;5.396;2023-08-06T10:05:00;14.45;;;8.90;;
74124;SDS011;62475;52.192;5.396;2023-08-06T10:07:26;15.57;;;7.93;;
74124;SDS011;62475;52.192;5.396;2023-08-06T10:09:52;14.20;;;8.35;;
74124;SDS011;62475;52.192;5.396;2023-08-06T10:12:17;13.57;;;6.77;;
74124;SDS011;62475;52.192;5.396;2023-08-06T10:14:44;14.68;;;7.50;;
74124;SDS011;62475;52.192;5.396;2023-08-06T10:17:10;14.25;;;7.55;;
74124;SDS011;62475;52.192;5.396;2023-08-06T10:19:36;14.80;;;8.25;;
74124;SDS011;62475;52.192;5.396;2023-08-06T10:24:48;16.42;;;8.55;;
74124;SDS011;62475;52.192;5.396;2023-08-06T10:27:18;17.33;;;7.85;;
74124;SDS011;62475;52.192;5.396;2023-08-06T10:29:44;16.80;;;8.00;;
74124;SDS011;62475;52.192;5.396;2023-08-06T10:32:09;19.90;;;8.73;;
74124;SDS011;62475;52.192;5.396;2023-08-06T10:34:57;13.10;;;7.70;;
74124;SDS011;62475;52.192;5.396;2023-08-06T10:37:35;17.67;;;8.38;;
74124;SDS011;62475;52.192;5.396;2023-08-06T10:40:00;16.17;;;8.02;;
74124;SDS011;62475;52.192;5.396;2023-08-06T10:42:29;16.88;;;8.10;;
74124;SDS011;62475;52.192;5.396;2023-08-06T10:47:39;13.95;;;7.30;;
74124;SDS011;62475;52.192;5.396;2023-08-06T10:50:05;15.95;;;7.57;;
74124;SDS011;62475;52.192;5.396;2023-08-06T10:52:32;19.88;;;7.90;;
74124;SDS011;62475;52.192;5.396;2023-08-06T10:54:58;21.63;;;9.40;;
74124;SDS011;62475;52.192;5.396;2023-08-06T10:57:23;18.03;;;7.83;;
74124;SDS011;62475;52.192;5.396;2023-08-06T10:59:49;17.83;;;8.43;;
74124;SDS011;62475;52.192;5.396;2023-08-06T11:02:14;13.38;;;7.43;;
74124;SDS011;62475;52.192;5.396;2023-08-06T11:04:39;13.50;;;5.83;;
74124;SDS011;62475;52.192;5.396;2023-08-06T11:07:06;13.85;;;7.13;;
74124;SDS011;62475;52.192;5.396;2023-08-06T11:09:31;16.08;;;6.85;;
74124;SDS011;62475;52.192;5.396;2023-08-06T11:11:57;17.03;;;7.83;;
74124;SDS011;62475;52.192;5.396;2023-08-06T11:14:22;16.97;;;6.97;;
74124;SDS011;62475;52.192;5.396;2023-08-06T11:16:47;11.80;;;5.47;;
74124;SDS011;62475;52.192;5.396;2023-08-06T11:19:12;11.80;;;5.38;;
74124;SDS011;62475;52.192;5.396;2023-08-06T11:21:40;10.65;;;5.38;;
74124;SDS011;62475;52.192;5.396;2023-08-06T11:24:05;12.43;;;5.90;;
74124;SDS011;62475;52.192;5.396;2023-08-06T11:26:30;13.18;;;5.30;;
74124;SDS011;62475;52.192;5.396;2023-08-06T11:28:55;10.95;;;4.97;;
74124;SDS011;62475;52.192;5.396;2023-08-06T11:31:21;11.07;;;5.07;;
74124;SDS011;62475;52.192;5.396;2023-08-06T11:33:46;9.65;;;4.65;;
74124;SDS011;62475;52.192;5.396;2023-08-06T11:36:11;8.47;;;4.57;;
74124;SDS011;62475;52.192;5.396;2023-08-06T11:38:37;8.70;;;4.53;;
74124;SDS011;62475;52.192;5.396;2023-08-06T11:41:02;10.90;;;5.03;;
74124;SDS011;62475;52.192;5.396;2023-08-06T11:43:29;9.87;;;4.23;;
74124;SDS011;62475;52.192;5.396;2023-08-06T11:45:55;7.38;;;3.88;;
74124;SDS011;62475;52.192;5.396;2023-08-06T11:48:21;8.63;;;3.55;;
74124;SDS011;62475;52.192;5.396;2023-08-06T11:50:46;7.83;;;3.93;;
74124;SDS011;62475;52.192;5.396;2023-08-06T11:53:12;8.43;;;3.20;;
74124;SDS011;62475;52.192;5.396;2023-08-06T11:55:37;8.82;;;3.80;;
74124;SDS011;62475;52.192;5.396;2023-08-06T11:58:03;6.00;;;3.30;;
74124;SDS011;62475;52.192;5.396;2023-08-06T12:00:29;13.73;;;4.72;;
74124;SDS011;62475;52.192;5.396;2023-08-06T12:02:54;7.50;;;3.20;;
74124;SDS011;62475;52.192;5.396;2023-08-06T12:05:21;7.75;;;3.95;;
74124;SDS011;62475;52.192;5.396;2023-08-06T12:07:49;9.07;;;4.18;;
74124;SDS011;62475;52.192;5.396;2023-08-06T12:10:14;8.98;;;4.10;;
74124;SDS011;62475;52.192;5.396;2023-08-06T12:12:40;10.27;;;3.78;;
74124;SDS011;62475;52.192;5.396;2023-08-06T12:15:05;9.23;;;3.57;;
74124;SDS011;62475;52.192;5.396;2023-08-06T12:17:34;9.05;;;4.35;;
74124;SDS011;62475;52.192;5.396;2023-08-06T12:20:00;7.68;;;3.38;;
74124;SDS011;62475;52.192;5.396;2023-08-06T12:22:26;8.35;;;3.78;;
74124;SDS011;62475;52.192;5.396;2023-08-06T12:24:51;9.13;;;3.05;;
74124;SDS011;62475;52.192;5.396;2023-08-06T12:27:16;9.45;;;3.50;;
74124;SDS011;62475;52.192;5.396;2023-08-06T12:29:42;5.20;;;2.87;;
74124;SDS011;62475;52.192;5.396;2023-08-06T12:32:08;7.68;;;3.45;;
74124;SDS011;62475;52.192;5.396;2023-08-06T12:34:33;6.00;;;2.85;;
74124;SDS011;62475;52.192;5.396;2023-08-06T12:36:58;5.93;;;3.40;;
74124;SDS011;62475;52.192;5.396;2023-08-06T12:39:24;12.83;;;3.83;;
74124;SDS011;62475;52.192;5.396;2023-08-06T12:41:49;7.18;;;3.80;;
74124;SDS011;62475;52.192;5.396;2023-08-06T12:44:15;8.05;;;3.42;;
74124;SDS011;62475;52.192;5.396;2023-08-06T12:46:40;8.43;;;3.60;;
74124;SDS011;62475;52.192;5.396;2023-08-06T12:49:05;6.97;;;4.10;;
74124;SDS011;62475;52.192;5.396;2023-08-06T12:51:30;9.53;;;4.40;;
74124;SDS011;62475;52.192;5.396;2023-08-06T12:53:56;7.15;;;4.13;;
74124;SDS011;62475;52.192;5.396;2023-08-06T12:56:21;7.77;;;3.50;;
74124;SDS011;62475;52.192;5.396;2023-08-06T12:58:46;9.03;;;3.93;;
74124;SDS011;62475;52.192;5.396;2023-08-06T13:01:11;12.20;;;4.67;;
74124;SDS011;62475;52.192;5.396;2023-08-06T13:03:37;9.57;;;3.87;;
74124;SDS011;62475;52.192;5.396;2023-08-06T13:06:02;10.20;;;4.60;;
74124;SDS011;62475;52.192;5.396;2023-08-06T13:08:27;8.50;;;4.45;;
74124;SDS011;62475;52.192;5.396;2023-08-06T13:10:52;10.60;;;4.53;;
74124;SDS011;62475;52.192;5.396;2023-08-06T13:13:17;9.73;;;4.30;;
74124;SDS011;62475;52.192;5.396;2023-08-06T13:15:43;11.23;;;5.00;;
74124;SDS011;62475;52.192;5.396;2023-08-06T13:18:09;11.13;;;4.30;;
74124;SDS011;62475;52.192;5.396;2023-08-06T13:20:37;8.73;;;4.53;;
74124;SDS011;62475;52.192;5.396;2023-08-06T13:23:03;10.35;;;4.55;;
74124;SDS011;62475;52.192;5.396;2023-08-06T13:25:28;11.17;;;5.07;;
74124;SDS011;62475;52.192;5.396;2023-08-06T13:27:53;10.65;;;5.95;;
74124;SDS011;62475;52.192;5.396;2023-08-06T13:30:19;11.88;;;5.25;;
74124;SDS011;62475;52.192;5.396;2023-08-06T13:32:45;10.03;;;4.60;;
74124;SDS011;62475;52.192;5.396;2023-08-06T13:35:10;8.30;;;5.40;;
74124;SDS011;62475;52.192;5.396;2023-08-06T13:37:35;10.17;;;5.63;;
74124;SDS011;62475;52.192;5.396;2023-08-06T13:40:00;12.18;;;5.20;;
74124;SDS011;62475;52.192;5.396;2023-08-06T13:42:25;13.37;;;5.60;;
74124;SDS011;62475;52.192;5.396;2023-08-06T13:44:51;12.17;;;5.40;;
74124;SDS011;62475;52.192;5.396;2023-08-06T13:47:16;11.83;;;5.37;;
74124;SDS011;62475;52.192;5.396;2023-08-06T13:49:41;9.93;;;5.53;;
74124;SDS011;62475;52.192;5.396;2023-08-06T13:52:06;9.80;;;4.87;;
74124;SDS011;62475;52.192;5.396;2023-08-06T13:54:31;10.17;;;4.60;;
74124;SDS011;62475;52.192;5.396;2023-08-06T13:56:57;9.87;;;4.67;;
74124;SDS011;62475;52.192;5.396;2023-08-06T13:59:22;8.95;;;4.50;;
74124;SDS011;62475;52.192;5.396;2023-08-06T14:01:49;13.95;;;4.00;;
74124;SDS011;62475;52.192;5.396;2023-08-06T14:04:14;7.40;;;3.67;;
74124;SDS011;62475;52.192;5.396;2023-08-06T14:06:39;7.00;;;3.47;;
74124;SDS011;62475;52.192;5.396;2023-08-06T14:09:05;8.30;;;4.00;;
74124;SDS011;62475;52.192;5.396;2023-08-06T14:11:30;7.72;;;4.03;;
74124;SDS011;62475;52.192;5.396;2023-08-06T14:13:55;6.33;;;3.47;;
74124;SDS011;62475;52.192;5.396;2023-08-06T14:16:20;5.47;;;3.67;;
74124;SDS011;62475;52.192;5.396;2023-08-06T14:18:45;7.97;;;4.20;;
74124;SDS011;62475;52.192;5.396;2023-08-06T14:21:11;6.43;;;4.30;;
74124;SDS011;62475;52.192;5.396;2023-08-06T14:23:37;9.27;;;3.73;;
74124;SDS011;62475;52.192;5.396;2023-08-06T14:26:02;6.30;;;3.88;;
74124;SDS011;62475;52.192;5.396;2023-08-06T14:28:27;7.00;;;3.63;;
74124;SDS011;62475;52.192;5.396;2023-08-06T14:30:54;10.07;;;4.05;;
74124;SDS011;62475;52.192;5.396;2023-08-06T14:33:19;7.20;;;3.40;;
74124;SDS011;62475;52.192;5.396;2023-08-06T14:35:44;7.00;;;3.67;;